Sigel, Pennsylvania
Current Conditions -  °F | °C
As of 12:53 AM on Saturday 25 Oct 2014 (Local Time) from KDUJ Reporting Station
Overcast Overcast  
Wind Chill: 43°   Ceiling: 4600
Heat Index: 46°   Visibility: 10mi
Dew Point: 38°   Wind: 6mph
Humidity: 73%   Direction: 240°WSW
Pressure: 29.97"   Gusts: NA
Location:  41.28°N, 79.11°W
Report Text: KDUJ 250453Z AUTO 24005KT 10SM OVC046 08/03 A2997 RMK AO2 SLP150 T00780033 401390056
Loading
Personal Weather Stations






























Interactive Weather Map
Tropical Storm Tracking
New forecast layout! Learn more

10-Day Weather Forecast

Advertisements
Track Severe Weather on mobile